sensor_id;sensor_type;location;lat;lon;timestamp;P1;durP1;ratioP1;P2;durP2;ratioP2
7398;SDS011;3740;50.700;7.184;2023-06-24T00:00:45;5.78;;;5.25;;
7398;SDS011;3740;50.700;7.184;2023-06-24T00:03:10;6.05;;;5.18;;
7398;SDS011;3740;50.700;7.184;2023-06-24T00:05:37;5.78;;;5.10;;
7398;SDS011;3740;50.700;7.184;2023-06-24T00:08:04;5.55;;;5.07;;
7398;SDS011;3740;50.700;7.184;2023-06-24T00:10:33;5.85;;;5.45;;
7398;SDS011;3740;50.700;7.184;2023-06-24T00:12:58;6.00;;;5.50;;
7398;SDS011;3740;50.700;7.184;2023-06-24T00:15:26;6.07;;;5.50;;
7398;SDS011;3740;50.700;7.184;2023-06-24T00:17:52;6.43;;;5.80;;
7398;SDS011;3740;50.700;7.184;2023-06-24T00:20:18;6.38;;;5.80;;
7398;SDS011;3740;50.700;7.184;2023-06-24T00:22:45;6.07;;;5.57;;
7398;SDS011;3740;50.700;7.184;2023-06-24T00:25:14;5.65;;;5.13;;
7398;SDS011;3740;50.700;7.184;2023-06-24T00:27:40;6.07;;;5.57;;
7398;SDS011;3740;50.700;7.184;2023-06-24T00:30:07;6.03;;;5.43;;
7398;SDS011;3740;50.700;7.184;2023-06-24T00:32:33;5.80;;;5.30;;
7398;SDS011;3740;50.700;7.184;2023-06-24T00:34:58;5.97;;;5.47;;
7398;SDS011;3740;50.700;7.184;2023-06-24T00:37:25;6.22;;;5.72;;
7398;SDS011;3740;50.700;7.184;2023-06-24T00:39:50;6.10;;;5.63;;
7398;SDS011;3740;50.700;7.184;2023-06-24T00:42:16;6.10;;;5.50;;
7398;SDS011;3740;50.700;7.184;2023-06-24T00:44:42;5.55;;;5.15;;
7398;SDS011;3740;50.700;7.184;2023-06-24T00:47:08;6.50;;;5.55;;
7398;SDS011;3740;50.700;7.184;2023-06-24T00:49:35;6.20;;;5.40;;
7398;SDS011;3740;50.700;7.184;2023-06-24T00:52:00;5.97;;;5.47;;
7398;SDS011;3740;50.700;7.184;2023-06-24T00:54:26;7.15;;;5.43;;
7398;SDS011;3740;50.700;7.184;2023-06-24T00:56:56;6.18;;;5.68;;
7398;SDS011;3740;50.700;7.184;2023-06-24T00:59:22;6.55;;;5.95;;
7398;SDS011;3740;50.700;7.184;2023-06-24T01:01:48;6.20;;;5.57;;
7398;SDS011;3740;50.700;7.184;2023-06-24T01:04:17;6.07;;;5.57;;
7398;SDS011;3740;50.700;7.184;2023-06-24T01:06:44;6.45;;;5.88;;
7398;SDS011;3740;50.700;7.184;2023-06-24T01:09:11;7.70;;;5.75;;
7398;SDS011;3740;50.700;7.184;2023-06-24T01:11:38;6.28;;;5.68;;
7398;SDS011;3740;50.700;7.184;2023-06-24T01:14:04;5.80;;;5.30;;
7398;SDS011;3740;50.700;7.184;2023-06-24T01:22:57;6.47;;;5.88;;
7398;SDS011;3740;50.700;7.184;2023-06-24T01:25:08;6.68;;;6.05;;
7398;SDS011;3740;50.700;7.184;2023-06-24T01:32:56;6.80;;;6.18;;
7398;SDS011;3740;50.700;7.184;2023-06-24T01:35:31;6.70;;;6.07;;
7398;SDS011;3740;50.700;7.184;2023-06-24T01:37:59;5.95;;;5.45;;
7398;SDS011;3740;50.700;7.184;2023-06-24T01:40:31;6.35;;;5.80;;
7398;SDS011;3740;50.700;7.184;2023-06-24T01:43:02;7.40;;;6.00;;
7398;SDS011;3740;50.700;7.184;2023-06-24T01:45:32;6.40;;;5.80;;
7398;SDS011;3740;50.700;7.184;2023-06-24T01:48:14;6.57;;;6.00;;
7398;SDS011;3740;50.700;7.184;2023-06-24T01:50:46;6.28;;;5.63;;
7398;SDS011;3740;50.700;7.184;2023-06-24T01:53:18;6.75;;;6.18;;
7398;SDS011;3740;50.700;7.184;2023-06-24T01:55:45;6.65;;;6.00;;
7398;SDS011;3740;50.700;7.184;2023-06-24T01:58:11;6.43;;;5.93;;
7398;SDS011;3740;50.700;7.184;2023-06-24T02:00:38;6.68;;;6.07;;
7398;SDS011;3740;50.700;7.184;2023-06-24T02:03:04;6.50;;;5.93;;
7398;SDS011;3740;50.700;7.184;2023-06-24T02:05:31;6.43;;;5.93;;
7398;SDS011;3740;50.700;7.184;2023-06-24T02:07:57;6.90;;;5.50;;
7398;SDS011;3740;50.700;7.184;2023-06-24T02:10:24;6.70;;;6.20;;
7398;SDS011;3740;50.700;7.184;2023-06-24T02:12:51;6.45;;;5.95;;
7398;SDS011;3740;50.700;7.184;2023-06-24T02:15:19;7.97;;;6.18;;
7398;SDS011;3740;50.700;7.184;2023-06-24T02:17:46;6.73;;;6.07;;
7398;SDS011;3740;50.700;7.184;2023-06-24T02:20:15;6.10;;;5.50;;
7398;SDS011;3740;50.700;7.184;2023-06-24T02:22:43;6.80;;;6.20;;
7398;SDS011;3740;50.700;7.184;2023-06-24T02:25:10;6.53;;;5.85;;
7398;SDS011;3740;50.700;7.184;2023-06-24T02:27:36;6.13;;;5.70;;
7398;SDS011;3740;50.700;7.184;2023-06-24T02:30:03;6.53;;;5.93;;
7398;SDS011;3740;50.700;7.184;2023-06-24T02:32:30;6.85;;;6.22;;
7398;SDS011;3740;50.700;7.184;2023-06-24T02:34:56;6.90;;;6.20;;
7398;SDS011;3740;50.700;7.184;2023-06-24T02:37:23;6.55;;;5.88;;
7398;SDS011;3740;50.700;7.184;2023-06-24T02:39:48;7.65;;;6.65;;
7398;SDS011;3740;50.700;7.184;2023-06-24T02:42:14;6.80;;;6.15;;
7398;SDS011;3740;50.700;7.184;2023-06-24T02:44:40;6.68;;;6.07;;
7398;SDS011;3740;50.700;7.184;2023-06-24T02:47:06;6.68;;;6.07;;
7398;SDS011;3740;50.700;7.184;2023-06-24T02:49:36;7.32;;;6.50;;
7398;SDS011;3740;50.700;7.184;2023-06-24T02:52:04;6.90;;;6.20;;
7398;SDS011;3740;50.700;7.184;2023-06-24T02:54:30;6.70;;;6.13;;
7398;SDS011;3740;50.700;7.184;2023-06-24T02:56:56;6.60;;;6.10;;
7398;SDS011;3740;50.700;7.184;2023-06-24T02:59:24;6.53;;;5.72;;
7398;SDS011;3740;50.700;7.184;2023-06-24T03:01:50;6.47;;;5.88;;
7398;SDS011;3740;50.700;7.184;2023-06-24T03:04:16;6.90;;;6.30;;
7398;SDS011;3740;50.700;7.184;2023-06-24T03:06:43;6.38;;;5.72;;
7398;SDS011;3740;50.700;7.184;2023-06-24T03:09:09;6.60;;;6.00;;
7398;SDS011;3740;50.700;7.184;2023-06-24T03:11:42;7.68;;;6.97;;
7398;SDS011;3740;50.700;7.184;2023-06-24T03:14:08;7.15;;;6.57;;
7398;SDS011;3740;50.700;7.184;2023-06-24T03:16:37;7.28;;;6.57;;
7398;SDS011;3740;50.700;7.184;2023-06-24T03:19:03;7.00;;;6.40;;
7398;SDS011;3740;50.700;7.184;2023-06-24T03:21:29;7.43;;;6.80;;
7398;SDS011;3740;50.700;7.184;2023-06-24T03:23:55;6.72;;;6.13;;
7398;SDS011;3740;50.700;7.184;2023-06-24T03:26:21;8.63;;;6.82;;
7398;SDS011;3740;50.700;7.184;2023-06-24T03:28:47;7.68;;;6.97;;
7398;SDS011;3740;50.700;7.184;2023-06-24T03:31:13;8.05;;;7.25;;
7398;SDS011;3740;50.700;7.184;2023-06-24T03:33:40;7.07;;;6.47;;
7398;SDS011;3740;50.700;7.184;2023-06-24T03:36:09;7.57;;;6.97;;
7398;SDS011;3740;50.700;7.184;2023-06-24T03:38:35;7.45;;;6.20;;
7398;SDS011;3740;50.700;7.184;2023-06-24T03:41:01;7.18;;;6.57;;
7398;SDS011;3740;50.700;7.184;2023-06-24T03:43:26;8.55;;;6.57;;
7398;SDS011;3740;50.700;7.184;2023-06-24T03:45:52;6.68;;;6.15;;
7398;SDS011;3740;50.700;7.184;2023-06-24T03:50:45;7.05;;;6.45;;
7398;SDS011;3740;50.700;7.184;2023-06-24T03:53:11;7.60;;;7.00;;
7398;SDS011;3740;50.700;7.184;2023-06-24T03:55:37;7.13;;;6.63;;
7398;SDS011;3740;50.700;7.184;2023-06-24T03:58:02;7.75;;;7.05;;
7398;SDS011;3740;50.700;7.184;2023-06-24T04:00:28;7.70;;;6.93;;
7398;SDS011;3740;50.700;7.184;2023-06-24T04:02:53;7.25;;;6.53;;
7398;SDS011;3740;50.700;7.184;2023-06-24T04:05:19;7.68;;;6.97;;
7398;SDS011;3740;50.700;7.184;2023-06-24T04:07:46;7.72;;;7.00;;
7398;SDS011;3740;50.700;7.184;2023-06-24T04:10:12;7.60;;;6.82;;
7398;SDS011;3740;50.700;7.184;2023-06-24T04:12:38;7.20;;;6.60;;
7398;SDS011;3740;50.700;7.184;2023-06-24T04:15:03;8.10;;;7.45;;
7398;SDS011;3740;50.700;7.184;2023-06-24T04:17:30;7.13;;;6.53;;
7398;SDS011;3740;50.700;7.184;2023-06-24T04:19:56;7.72;;;7.03;;
7398;SDS011;3740;50.700;7.184;2023-06-24T04:22:23;8.40;;;7.60;;
7398;SDS011;3740;50.700;7.184;2023-06-24T04:24:49;8.57;;;7.88;;
7398;SDS011;3740;50.700;7.184;2023-06-24T04:27:15;8.40;;;7.70;;
7398;SDS011;3740;50.700;7.184;2023-06-24T04:29:41;8.45;;;7.75;;
7398;SDS011;3740;50.700;7.184;2023-06-24T04:32:06;9.57;;;8.45;;
7398;SDS011;3740;50.700;7.184;2023-06-24T04:34:32;9.43;;;8.63;;
7398;SDS011;3740;50.700;7.184;2023-06-24T04:36:58;9.55;;;8.63;;
7398;SDS011;3740;50.700;7.184;2023-06-24T04:39:23;8.80;;;8.10;;
7398;SDS011;3740;50.700;7.184;2023-06-24T04:41:49;8.13;;;7.53;;
7398;SDS011;3740;50.700;7.184;2023-06-24T04:44:14;9.13;;;8.32;;
7398;SDS011;3740;50.700;7.184;2023-06-24T04:46:40;9.20;;;8.43;;
7398;SDS011;3740;50.700;7.184;2023-06-24T04:49:06;8.77;;;7.97;;
7398;SDS011;3740;50.700;7.184;2023-06-24T04:51:32;8.85;;;8.15;;
7398;SDS011;3740;50.700;7.184;2023-06-24T04:53:57;8.73;;;8.02;;
7398;SDS011;3740;50.700;7.184;2023-06-24T04:56:23;9.65;;;8.80;;
7398;SDS011;3740;50.700;7.184;2023-06-24T04:58:49;9.55;;;8.75;;
7398;SDS011;3740;50.700;7.184;2023-06-24T05:01:15;9.27;;;8.48;;
7398;SDS011;3740;50.700;7.184;2023-06-24T05:03:40;9.98;;;8.98;;
7398;SDS011;3740;50.700;7.184;2023-06-24T05:06:06;9.63;;;8.82;;
7398;SDS011;3740;50.700;7.184;2023-06-24T05:08:33;9.10;;;8.30;;
7398;SDS011;3740;50.700;7.184;2023-06-24T05:10:58;9.15;;;8.40;;
7398;SDS011;3740;50.700;7.184;2023-06-24T05:13:24;9.75;;;8.98;;
7398;SDS011;3740;50.700;7.184;2023-06-24T05:15:50;9.63;;;8.77;;
7398;SDS011;3740;50.700;7.184;2023-06-24T05:18:16;9.50;;;8.60;;
7398;SDS011;3740;50.700;7.184;2023-06-24T05:20:41;9.57;;;8.68;;
7398;SDS011;3740;50.700;7.184;2023-06-24T05:23:07;9.75;;;8.95;;
7398;SDS011;3740;50.700;7.184;2023-06-24T05:25:33;10.32;;;9.32;;
7398;SDS011;3740;50.700;7.184;2023-06-24T05:27:58;9.55;;;8.68;;
7398;SDS011;3740;50.700;7.184;2023-06-24T05:30:24;9.85;;;8.95;;
7398;SDS011;3740;50.700;7.184;2023-06-24T05:32:49;9.88;;;8.95;;
7398;SDS011;3740;50.700;7.184;2023-06-24T05:35:15;10.20;;;9.30;;
7398;SDS011;3740;50.700;7.184;2023-06-24T05:37:41;10.60;;;9.60;;
7398;SDS011;3740;50.700;7.184;2023-06-24T05:40:06;9.68;;;8.77;;
7398;SDS011;3740;50.700;7.184;2023-06-24T05:42:32;9.02;;;8.27;;
7398;SDS011;3740;50.700;7.184;2023-06-24T05:44:58;9.48;;;8.73;;
7398;SDS011;3740;50.700;7.184;2023-06-24T05:47:24;8.80;;;8.00;;
7398;SDS011;3740;50.700;7.184;2023-06-24T05:49:50;10.07;;;8.95;;
7398;SDS011;3740;50.700;7.184;2023-06-24T05:52:15;9.52;;;8.70;;
7398;SDS011;3740;50.700;7.184;2023-06-24T05:54:41;9.75;;;8.95;;
7398;SDS011;3740;50.700;7.184;2023-06-24T05:57:06;10.02;;;8.45;;
7398;SDS011;3740;50.700;7.184;2023-06-24T05:59:32;8.98;;;8.07;;
7398;SDS011;3740;50.700;7.184;2023-06-24T06:01:58;8.70;;;7.93;;
7398;SDS011;3740;50.700;7.184;2023-06-24T06:04:26;9.23;;;8.38;;
7398;SDS011;3740;50.700;7.184;2023-06-24T06:06:52;9.80;;;8.25;;
7398;SDS011;3740;50.700;7.184;2023-06-24T06:09:17;8.52;;;7.72;;
7398;SDS011;3740;50.700;7.184;2023-06-24T06:11:43;8.98;;;8.18;;
7398;SDS011;3740;50.700;7.184;2023-06-24T06:14:09;8.27;;;7.55;;
7398;SDS011;3740;50.700;7.184;2023-06-24T06:16:34;8.38;;;7.63;;
7398;SDS011;3740;50.700;7.184;2023-06-24T06:19:00;8.80;;;7.90;;
7398;SDS011;3740;50.700;7.184;2023-06-24T06:21:25;7.97;;;6.88;;
7398;SDS011;3740;50.700;7.184;2023-06-24T06:23:51;8.52;;;7.15;;
7398;SDS011;3740;50.700;7.184;2023-06-24T06:26:16;8.38;;;7.53;;
7398;SDS011;3740;50.700;7.184;2023-06-24T06:28:42;7.82;;;7.15;;
7398;SDS011;3740;50.700;7.184;2023-06-24T06:31:07;6.78;;;6.28;;
7398;SDS011;3740;50.700;7.184;2023-06-24T06:33:33;7.65;;;6.95;;
7398;SDS011;3740;50.700;7.184;2023-06-24T06:35:58;7.30;;;6.60;;
7398;SDS011;3740;50.700;7.184;2023-06-24T06:38:24;7.25;;;6.65;;
7398;SDS011;3740;50.700;7.184;2023-06-24T06:40:50;7.20;;;6.50;;
7398;SDS011;3740;50.700;7.184;2023-06-24T06:43:15;7.57;;;6.90;;
7398;SDS011;3740;50.700;7.184;2023-06-24T06:45:41;7.20;;;6.60;;
7398;SDS011;3740;50.700;7.184;2023-06-24T06:48:06;6.93;;;6.40;;
7398;SDS011;3740;50.700;7.184;2023-06-24T06:50:33;6.80;;;6.20;;
7398;SDS011;3740;50.700;7.184;2023-06-24T06:52:59;6.72;;;6.13;;
7398;SDS011;3740;50.700;7.184;2023-06-24T06:55:26;6.65;;;6.05;;
7398;SDS011;3740;50.700;7.184;2023-06-24T06:57:52;6.53;;;5.97;;
7398;SDS011;3740;50.700;7.184;2023-06-24T07:00:18;8.50;;;7.70;;
7398;SDS011;3740;50.700;7.184;2023-06-24T07:02:43;6.65;;;6.13;;
7398;SDS011;3740;50.700;7.184;2023-06-24T07:05:09;7.68;;;6.88;;
7398;SDS011;3740;50.700;7.184;2023-06-24T07:07:36;6.82;;;6.22;;
7398;SDS011;3740;50.700;7.184;2023-06-24T07:10:05;6.85;;;6.10;;
7398;SDS011;3740;50.700;7.184;2023-06-24T07:12:31;6.95;;;6.20;;
7398;SDS011;3740;50.700;7.184;2023-06-24T07:14:56;8.85;;;6.47;;
7398;SDS011;3740;50.700;7.184;2023-06-24T07:17:22;6.78;;;6.28;;
7398;SDS011;3740;50.700;7.184;2023-06-24T07:19:48;6.82;;;6.18;;
7398;SDS011;3740;50.700;7.184;2023-06-24T07:22:16;7.00;;;6.38;;
7398;SDS011;3740;50.700;7.184;2023-06-24T07:24:42;6.82;;;6.25;;
7398;SDS011;3740;50.700;7.184;2023-06-24T07:27:07;7.07;;;6.47;;
7398;SDS011;3740;50.700;7.184;2023-06-24T07:29:33;6.60;;;6.00;;
7398;SDS011;3740;50.700;7.184;2023-06-24T07:31:58;7.57;;;6.75;;
7398;SDS011;3740;50.700;7.184;2023-06-24T07:34:24;6.50;;;6.00;;
7398;SDS011;3740;50.700;7.184;2023-06-24T07:36:50;7.10;;;6.40;;
7398;SDS011;3740;50.700;7.184;2023-06-24T07:39:16;6.47;;;5.97;;
7398;SDS011;3740;50.700;7.184;2023-06-24T07:41:41;6.85;;;6.20;;
7398;SDS011;3740;50.700;7.184;2023-06-24T07:44:07;7.30;;;6.70;;
7398;SDS011;3740;50.700;7.184;2023-06-24T07:46:33;6.60;;;6.00;;
7398;SDS011;3740;50.700;7.184;2023-06-24T07:48:59;7.07;;;6.45;;
7398;SDS011;3740;50.700;7.184;2023-06-24T07:51:24;8.60;;;7.07;;
7398;SDS011;3740;50.700;7.184;2023-06-24T07:53:50;7.13;;;6.53;;
7398;SDS011;3740;50.700;7.184;2023-06-24T07:56:15;7.38;;;6.75;;
7398;SDS011;3740;50.700;7.184;2023-06-24T07:58:41;6.57;;;5.93;;
7398;SDS011;3740;50.700;7.184;2023-06-24T08:01:07;7.43;;;6.80;;
7398;SDS011;3740;50.700;7.184;2023-06-24T08:03:33;7.50;;;6.80;;
7398;SDS011;3740;50.700;7.184;2023-06-24T08:05:59;8.80;;;8.00;;
7398;SDS011;3740;50.700;7.184;2023-06-24T08:08:24;8.15;;;7.40;;
7398;SDS011;3740;50.700;7.184;2023-06-24T08:10:50;7.60;;;6.90;;
7398;SDS011;3740;50.700;7.184;2023-06-24T08:13:15;6.90;;;6.40;;
7398;SDS011;3740;50.700;7.184;2023-06-24T08:15:41;7.78;;;7.07;;
7398;SDS011;3740;50.700;7.184;2023-06-24T08:18:07;6.85;;;6.28;;
7398;SDS011;3740;50.700;7.184;2023-06-24T08:20:32;7.25;;;6.55;;
7398;SDS011;3740;50.700;7.184;2023-06-24T08:22:58;6.82;;;6.25;;
7398;SDS011;3740;50.700;7.184;2023-06-24T08:25:23;7.28;;;6.68;;
7398;SDS011;3740;50.700;7.184;2023-06-24T08:27:49;8.18;;;7.20;;
7398;SDS011;3740;50.700;7.184;2023-06-24T08:30:14;6.50;;;6.00;;
7398;SDS011;3740;50.700;7.184;2023-06-24T08:32:40;9.13;;;8.32;;
7398;SDS011;3740;50.700;7.184;2023-06-24T08:35:06;8.07;;;7.38;;
7398;SDS011;3740;50.700;7.184;2023-06-24T08:37:33;8.10;;;7.40;;
7398;SDS011;3740;50.700;7.184;2023-06-24T08:39:59;7.35;;;6.60;;
7398;SDS011;3740;50.700;7.184;2023-06-24T08:42:25;7.13;;;6.53;;
7398;SDS011;3740;50.700;7.184;2023-06-24T08:44:50;7.13;;;6.50;;
7398;SDS011;3740;50.700;7.184;2023-06-24T08:47:16;8.05;;;7.25;;
7398;SDS011;3740;50.700;7.184;2023-06-24T08:49:53;7.47;;;6.82;;
7398;SDS011;3740;50.700;7.184;2023-06-24T08:52:26;6.85;;;6.15;;
7398;SDS011;3740;50.700;7.184;2023-06-24T08:54:56;7.00;;;6.40;;
7398;SDS011;3740;50.700;7.184;2023-06-24T08:57:26;7.47;;;6.78;;
7398;SDS011;3740;50.700;7.184;2023-06-24T08:59:51;7.30;;;6.60;;
7398;SDS011;3740;50.700;7.184;2023-06-24T09:02:18;6.88;;;6.25;;
7398;SDS011;3740;50.700;7.184;2023-06-24T09:04:43;6.20;;;5.68;;
7398;SDS011;3740;50.700;7.184;2023-06-24T09:07:09;7.80;;;6.82;;
7398;SDS011;3740;50.700;7.184;2023-06-24T09:09:41;7.28;;;6.57;;
7398;SDS011;3740;50.700;7.184;2023-06-24T09:12:10;6.80;;;6.00;;
7398;SDS011;3740;50.700;7.184;2023-06-24T09:14:37;6.68;;;6.07;;
7398;SDS011;3740;50.700;7.184;2023-06-24T09:17:02;6.43;;;5.82;;
7398;SDS011;3740;50.700;7.184;2023-06-24T09:19:30;6.65;;;6.15;;
7398;SDS011;3740;50.700;7.184;2023-06-24T09:22:02;8.55;;;7.85;;
7398;SDS011;3740;50.700;7.184;2023-06-24T09:24:32;6.78;;;6.20;;
7398;SDS011;3740;50.700;7.184;2023-06-24T09:26:58;8.45;;;7.75;;
7398;SDS011;3740;50.700;7.184;2023-06-24T09:29:29;7.05;;;6.45;;
7398;SDS011;3740;50.700;7.184;2023-06-24T09:31:57;6.53;;;5.93;;
7398;SDS011;3740;50.700;7.184;2023-06-24T09:34:24;7.72;;;7.05;;
7398;SDS011;3740;50.700;7.184;2023-06-24T09:36:52;8.38;;;7.50;;
7398;SDS011;3740;50.700;7.184;2023-06-24T09:39:18;7.00;;;6.32;;
7398;SDS011;3740;50.700;7.184;2023-06-24T09:41:49;6.50;;;5.90;;
7398;SDS011;3740;50.700;7.184;2023-06-24T09:44:15;6.93;;;6.25;;
7398;SDS011;3740;50.700;7.184;2023-06-24T09:46:41;8.63;;;7.78;;
7398;SDS011;3740;50.700;7.184;2023-06-24T09:49:08;7.07;;;6.38;;
7398;SDS011;3740;50.700;7.184;2023-06-24T09:51:36;5.63;;;5.13;;
7398;SDS011;3740;50.700;7.184;2023-06-24T09:54:05;6.50;;;5.90;;
7398;SDS011;3740;50.700;7.184;2023-06-24T09:56:33;8.38;;;7.57;;
7398;SDS011;3740;50.700;7.184;2023-06-24T09:59:03;7.30;;;6.60;;
7398;SDS011;3740;50.700;7.184;2023-06-24T10:01:30;6.00;;;5.40;;
7398;SDS011;3740;50.700;7.184;2023-06-24T10:04:01;6.70;;;6.07;;
7398;SDS011;3740;50.700;7.184;2023-06-24T10:06:28;5.30;;;4.80;;
7398;SDS011;3740;50.700;7.184;2023-06-24T10:08:54;5.75;;;5.30;;
7398;SDS011;3740;50.700;7.184;2023-06-24T10:11:21;6.20;;;5.60;;
7398;SDS011;3740;50.700;7.184;2023-06-24T10:13:46;6.20;;;5.60;;
7398;SDS011;3740;50.700;7.184;2023-06-24T10:16:12;7.45;;;5.82;;
7398;SDS011;3740;50.700;7.184;2023-06-24T10:18:38;5.97;;;5.45;;
7398;SDS011;3740;50.700;7.184;2023-06-24T10:21:05;6.90;;;6.38;;
7398;SDS011;3740;50.700;7.184;2023-06-24T10:24:14;7.28;;;6.55;;
7398;SDS011;3740;50.700;7.184;2023-06-24T10:26:27;9.07;;;6.82;;
7398;SDS011;3740;50.700;7.184;2023-06-24T10:36:53;7.50;;;6.28;;
7398;SDS011;3740;50.700;7.184;2023-06-24T10:39:53;7.18;;;6.53;;
7398;SDS011;3740;50.700;7.184;2023-06-24T10:44:49;6.10;;;5.43;;
7398;SDS011;3740;50.700;7.184;2023-06-24T10:47:16;6.28;;;5.68;;
7398;SDS011;3740;50.700;7.184;2023-06-24T10:49:42;24.65;;;7.50;;
7398;SDS011;3740;50.700;7.184;2023-06-24T10:52:08;19.40;;;7.50;;
7398;SDS011;3740;50.700;7.184;2023-06-24T10:54:35;6.95;;;6.13;;
7398;SDS011;3740;50.700;7.184;2023-06-24T10:57:04;15.05;;;6.47;;
7398;SDS011;3740;50.700;7.184;2023-06-24T10:59:34;5.88;;;5.10;;
7398;SDS011;3740;50.700;7.184;2023-06-24T11:02:00;4.90;;;4.50;;
7398;SDS011;3740;50.700;7.184;2023-06-24T11:04:26;6.40;;;5.80;;
7398;SDS011;3740;50.700;7.184;2023-06-24T11:06:58;4.60;;;4.20;;
7398;SDS011;3740;50.700;7.184;2023-06-24T11:09:24;4.35;;;3.95;;
7398;SDS011;3740;50.700;7.184;2023-06-24T11:11:50;4.60;;;4.20;;
7398;SDS011;3740;50.700;7.184;2023-06-24T11:14:16;4.25;;;3.90;;
7398;SDS011;3740;50.700;7.184;2023-06-24T11:16:41;5.07;;;4.55;;
7398;SDS011;3740;50.700;7.184;2023-06-24T11:19:08;4.30;;;3.90;;
7398;SDS011;3740;50.700;7.184;2023-06-24T11:21:33;4.82;;;4.38;;
7398;SDS011;3740;50.700;7.184;2023-06-24T11:24:02;4.03;;;3.72;;
7398;SDS011;3740;50.700;7.184;2023-06-24T11:26:29;4.93;;;4.53;;
7398;SDS011;3740;50.700;7.184;2023-06-24T11:28:55;5.00;;;4.50;;
7398;SDS011;3740;50.700;7.184;2023-06-24T11:31:26;4.60;;;4.30;;
7398;SDS011;3740;50.700;7.184;2023-06-24T11:33:52;3.70;;;3.40;;
7398;SDS011;3740;50.700;7.184;2023-06-24T11:36:18;4.28;;;3.97;;
7398;SDS011;3740;50.700;7.184;2023-06-24T11:38:47;4.75;;;4.40;;
7398;SDS011;3740;50.700;7.184;2023-06-24T11:41:13;3.97;;;3.67;;
7398;SDS011;3740;50.700;7.184;2023-06-24T11:43:46;4.45;;;4.15;;
7398;SDS011;3740;50.700;7.184;2023-06-24T11:46:24;4.10;;;3.80;;
7398;SDS011;3740;50.700;7.184;2023-06-24T11:48:51;4.53;;;4.13;;
7398;SDS011;3740;50.700;7.184;2023-06-24T11:51:16;3.75;;;3.45;;
7398;SDS011;3740;50.700;7.184;2023-06-24T11:53:43;4.00;;;3.70;;
7398;SDS011;3740;50.700;7.184;2023-06-24T11:56:10;3.95;;;3.65;;
7398;SDS011;3740;50.700;7.184;2023-06-24T11:58:36;3.92;;;3.70;;
7398;SDS011;3740;50.700;7.184;2023-06-24T12:01:02;3.63;;;3.33;;
7398;SDS011;3740;50.700;7.184;2023-06-24T12:03:30;4.00;;;3.70;;
7398;SDS011;3740;50.700;7.184;2023-06-24T12:05:58;3.72;;;3.42;;
7398;SDS011;3740;50.700;7.184;2023-06-24T12:08:24;3.75;;;3.45;;
7398;SDS011;3740;50.700;7.184;2023-06-24T12:10:50;3.70;;;3.40;;
7398;SDS011;3740;50.700;7.184;2023-06-24T12:13:16;3.75;;;3.50;;
7398;SDS011;3740;50.700;7.184;2023-06-24T12:15:42;4.00;;;3.67;;
7398;SDS011;3740;50.700;7.184;2023-06-24T12:18:07;3.90;;;3.60;;
7398;SDS011;3740;50.700;7.184;2023-06-24T12:20:33;4.32;;;4.03;;
7398;SDS011;3740;50.700;7.184;2023-06-24T12:23:02;4.43;;;4.13;;
7398;SDS011;3740;50.700;7.184;2023-06-24T12:25:31;4.35;;;3.95;;
7398;SDS011;3740;50.700;7.184;2023-06-24T12:27:57;4.03;;;3.67;;
7398;SDS011;3740;50.700;7.184;2023-06-24T12:30:24;4.68;;;4.38;;
7398;SDS011;3740;50.700;7.184;2023-06-24T12:32:50;4.25;;;3.95;;
7398;SDS011;3740;50.700;7.184;2023-06-24T12:35:16;4.10;;;3.80;;
7398;SDS011;3740;50.700;7.184;2023-06-24T12:37:42;4.47;;;4.07;;
7398;SDS011;3740;50.700;7.184;2023-06-24T12:40:10;4.32;;;3.92;;
7398;SDS011;3740;50.700;7.184;2023-06-24T12:42:35;4.05;;;3.67;;
7398;SDS011;3740;50.700;7.184;2023-06-24T12:45:01;4.22;;;3.85;;
7398;SDS011;3740;50.700;7.184;2023-06-24T12:47:27;4.45;;;4.13;;
7398;SDS011;3740;50.700;7.184;2023-06-24T12:49:53;4.10;;;3.80;;
7398;SDS011;3740;50.700;7.184;2023-06-24T12:52:18;4.30;;;4.00;;
7398;SDS011;3740;50.700;7.184;2023-06-24T12:54:44;4.32;;;4.03;;
7398;SDS011;3740;50.700;7.184;2023-06-24T12:57:09;4.40;;;4.07;;
7398;SDS011;3740;50.700;7.184;2023-06-24T12:59:35;4.53;;;4.20;;
7398;SDS011;3740;50.700;7.184;2023-06-24T13:02:01;3.85;;;3.55;;
7398;SDS011;3740;50.700;7.184;2023-06-24T13:04:26;4.40;;;4.00;;
7398;SDS011;3740;50.700;7.184;2023-06-24T13:06:52;4.65;;;4.25;;
7398;SDS011;3740;50.700;7.184;2023-06-24T13:09:18;5.25;;;4.85;;
7398;SDS011;3740;50.700;7.184;2023-06-24T13:11:44;4.05;;;3.78;;
7398;SDS011;3740;50.700;7.184;2023-06-24T13:14:10;3.40;;;3.20;;
7398;SDS011;3740;50.700;7.184;2023-06-24T13:16:36;4.10;;;3.80;;
7398;SDS011;3740;50.700;7.184;2023-06-24T13:19:02;4.00;;;3.70;;
7398;SDS011;3740;50.700;7.184;2023-06-24T13:21:27;4.60;;;4.30;;
7398;SDS011;3740;50.700;7.184;2023-06-24T13:23:53;4.30;;;4.00;;
7398;SDS011;3740;50.700;7.184;2023-06-24T13:26:19;4.80;;;4.30;;
7398;SDS011;3740;50.700;7.184;2023-06-24T13:28:44;4.13;;;3.83;;
7398;SDS011;3740;50.700;7.184;2023-06-24T13:31:10;4.00;;;3.70;;
7398;SDS011;3740;50.700;7.184;2023-06-24T13:33:36;4.32;;;3.97;;
7398;SDS011;3740;50.700;7.184;2023-06-24T13:36:02;3.95;;;3.72;;
7398;SDS011;3740;50.700;7.184;2023-06-24T13:38:28;4.45;;;4.05;;
7398;SDS011;3740;50.700;7.184;2023-06-24T13:40:55;4.43;;;4.13;;
7398;SDS011;3740;50.700;7.184;2023-06-24T13:43:21;3.70;;;3.47;;
7398;SDS011;3740;50.700;7.184;2023-06-24T13:45:46;4.40;;;3.92;;
7398;SDS011;3740;50.700;7.184;2023-06-24T13:48:12;5.25;;;4.75;;
7398;SDS011;3740;50.700;7.184;2023-06-24T13:50:37;4.72;;;4.32;;
7398;SDS011;3740;50.700;7.184;2023-06-24T13:53:03;4.55;;;4.15;;
7398;SDS011;3740;50.700;7.184;2023-06-24T13:55:28;4.68;;;4.28;;
7398;SDS011;3740;50.700;7.184;2023-06-24T13:57:54;4.35;;;4.05;;
7398;SDS011;3740;50.700;7.184;2023-06-24T14:00:19;4.97;;;4.63;;
7398;SDS011;3740;50.700;7.184;2023-06-24T14:02:45;4.18;;;3.88;;
7398;SDS011;3740;50.700;7.184;2023-06-24T14:05:11;4.90;;;4.50;;
7398;SDS011;3740;50.700;7.184;2023-06-24T14:07:36;4.80;;;4.40;;
7398;SDS011;3740;50.700;7.184;2023-06-24T14:10:02;4.80;;;4.35;;
7398;SDS011;3740;50.700;7.184;2023-06-24T14:12:27;4.72;;;4.32;;
7398;SDS011;3740;50.700;7.184;2023-06-24T14:14:53;4.70;;;4.28;;
7398;SDS011;3740;50.700;7.184;2023-06-24T14:17:19;4.20;;;3.90;;
7398;SDS011;3740;50.700;7.184;2023-06-24T14:19:44;4.35;;;4.05;;
7398;SDS011;3740;50.700;7.184;2023-06-24T14:22:11;4.60;;;4.20;;
7398;SDS011;3740;50.700;7.184;2023-06-24T14:24:37;4.10;;;3.80;;
7398;SDS011;3740;50.700;7.184;2023-06-24T14:27:03;4.57;;;4.20;;
7398;SDS011;3740;50.700;7.184;2023-06-24T14:29:32;5.18;;;4.70;;
7398;SDS011;3740;50.700;7.184;2023-06-24T14:31:57;4.43;;;4.03;;
7398;SDS011;3740;50.700;7.184;2023-06-24T14:34:23;4.70;;;4.30;;
7398;SDS011;3740;50.700;7.184;2023-06-24T14:36:48;4.90;;;4.50;;
7398;SDS011;3740;50.700;7.184;2023-06-24T14:39:15;4.50;;;4.20;;
7398;SDS011;3740;50.700;7.184;2023-06-24T14:41:42;4.85;;;4.45;;
7398;SDS011;3740;50.700;7.184;2023-06-24T14:44:07;4.80;;;4.40;;
7398;SDS011;3740;50.700;7.184;2023-06-24T14:46:33;5.40;;;4.97;;
7398;SDS011;3740;50.700;7.184;2023-06-24T14:48:58;4.70;;;4.30;;
7398;SDS011;3740;50.700;7.184;2023-06-24T14:51:24;4.97;;;4.57;;
7398;SDS011;3740;50.700;7.184;2023-06-24T14:53:50;4.90;;;4.50;;
7398;SDS011;3740;50.700;7.184;2023-06-24T14:56:16;4.57;;;4.18;;
7398;SDS011;3740;50.700;7.184;2023-06-24T14:58:41;4.70;;;3.95;;
7398;SDS011;3740;50.700;7.184;2023-06-24T15:01:07;5.45;;;4.95;;
7398;SDS011;3740;50.700;7.184;2023-06-24T15:03:32;5.20;;;4.78;;
7398;SDS011;3740;50.700;7.184;2023-06-24T15:05:58;4.97;;;4.57;;
7398;SDS011;3740;50.700;7.184;2023-06-24T15:08:23;4.60;;;4.22;;
7398;SDS011;3740;50.700;7.184;2023-06-24T15:10:51;4.57;;;4.18;;
7398;SDS011;3740;50.700;7.184;2023-06-24T15:13:17;5.18;;;4.78;;
7398;SDS011;3740;50.700;7.184;2023-06-24T15:15:43;5.20;;;4.75;;
7398;SDS011;3740;50.700;7.184;2023-06-24T15:18:08;5.32;;;4.82;;
7398;SDS011;3740;50.700;7.184;2023-06-24T15:20:34;5.05;;;4.63;;
7398;SDS011;3740;50.700;7.184;2023-06-24T15:22:59;5.38;;;4.88;;
7398;SDS011;3740;50.700;7.184;2023-06-24T15:25:25;5.30;;;4.90;;
7398;SDS011;3740;50.700;7.184;2023-06-24T15:27:52;5.00;;;4.60;;
7398;SDS011;3740;50.700;7.184;2023-06-24T15:30:18;5.32;;;4.82;;
7398;SDS011;3740;50.700;7.184;2023-06-24T15:32:43;5.38;;;4.97;;
7398;SDS011;3740;50.700;7.184;2023-06-24T15:35:11;4.90;;;4.50;;